Aérodrome :
LOGIN :

S'inscrire | Disclaimer

   EN    FR    IT 

 










Légende :    VFR   VFR Marginal   IFR   IFR Intensif   IFR Très Intensif
Visi : 
Plafond : 
>= 8 km
>= 3000ft
5 à 8 km
1000 à 3000 ft
1500m à 5 km
500 à 1000 ft
800 à 1500m
200 à 500 ft
< 800m
< 200 ft
Symboles :   Orages  Brouillard  Fortes neiges  Fortes précipitations  Vent > 20 kt
SIGMETs :   Divers  Orages  Givrage  Turbulence  Onde Orograph.  Cendres Volcan.







- Altitude de l'aérodrome : 245 ft


ETHS - Fassberg

DERNIER METAR :
  • 120520Z 34003KT 9000 FEW023 BKN029 01/01 Q1024 BLU BLU

METARs EXPIRÉS :
  • 120420Z 32003KT 9000 SCT015 BKN030 01/00 Q1024 BLU
  • 120320Z 35005KT 9999 SCT020 BKN040 01/00 Q1024 BLU

TAF TAF ETHS
Valide du 12 à 06h jusqu'au 12 à 15h UTC


120519Z 1206/1215 02005KT 9000 NSW SCT015 BKN030
TEMPO 1208/1215 36010KT 4000 SHRASN SCT008 BKN012TCU
Pas de NOTAMs connus pour ce terrain.



MET'MAP, la Météo Aéronautique d'un coup d'oeil ! - Copyright ORBIFLY Décembre 2007 - Disclaimer

ORBIFLY MET'MAP TEAM :

Programmation & Développement : Alexandra Zaïnal
Conception & Développement : Baudouin d'Aumeries
Co-Programmation & Développement : Marc-Olivier Méhu
Soutien technique & logistique : Manuel Goepfert

Contact : metmap@orbifly.com




SOURCES & CREDITS :

   NOAA